createdAt,value
2019-01-24T00:00:46.559Z,28.3
2019-01-24T00:01:36.623Z,28.2
2019-01-24T00:02:27.279Z,28.1
2019-01-24T00:03:16.739Z,27.9
2019-01-24T00:04:06.322Z,27.8
2019-01-24T00:04:56.925Z,27.6
2019-01-24T00:05:46.932Z,27.4
2019-01-24T00:06:37.234Z,27.4
2019-01-24T00:07:27.047Z,27.4
2019-01-24T00:08:17.351Z,27.3
2019-01-24T00:09:06.903Z,27.3
2019-01-24T00:09:57.491Z,27.4
2019-01-24T00:10:46.690Z,27.5
2019-01-24T00:11:36.629Z,27.7
2019-01-24T00:13:17.756Z,28
2019-01-24T00:14:07.488Z,28.1
2019-01-24T00:14:57.548Z,28.2
2019-01-24T00:15:47.911Z,28.3
2019-01-24T00:16:37.138Z,28.4
2019-01-24T00:17:27.993Z,28.5
2019-01-24T00:18:18.708Z,28.6
2019-01-24T00:19:07.881Z,28.6
2019-01-24T00:19:58.196Z,28.7
2019-01-24T00:20:47.452Z,28.6
2019-01-24T00:21:37.458Z,28.4
2019-01-24T00:22:28.378Z,28.1
2019-01-24T00:23:18.473Z,27.9
2019-01-24T00:24:08.471Z,27.8
2019-01-24T00:24:57.685Z,27.8
2019-01-24T00:25:49.466Z,27.7
2019-01-24T00:26:37.222Z,27.7
2019-01-24T00:27:28.173Z,27.6
2019-01-24T00:28:19.058Z,27.4
2019-01-24T00:29:08.533Z,27.3
2019-01-24T00:29:58.299Z,27.3
2019-01-24T00:30:48.373Z,27.4
2019-01-24T00:31:39.240Z,27.6
2019-01-24T00:33:18.816Z,28
2019-01-24T00:34:09.221Z,28.1
2019-01-24T00:34:58.080Z,28.3
2019-01-24T00:35:49.275Z,28.3
2019-01-24T00:36:39.117Z,28.4
2019-01-24T00:37:29.132Z,28.6
2019-01-24T00:38:18.632Z,28.6
2019-01-24T00:39:09.560Z,28.7
2019-01-24T00:39:59.572Z,28.8
2019-01-24T00:40:49.312Z,28.8
2019-01-24T00:41:39.618Z,28.9
2019-01-24T00:42:29.774Z,28.9
2019-01-24T00:43:20.608Z,28.8
2019-01-24T00:44:09.579Z,28.8
2019-01-24T00:45:00.208Z,28.6
2019-01-24T00:45:49.469Z,28.5
2019-01-24T00:46:39.239Z,28.4
2019-01-24T00:47:29.271Z,28.3
2019-01-24T00:48:19.909Z,28.1
2019-01-24T00:49:09.132Z,27.9
2019-01-24T00:50:49.541Z,27.7
2019-01-24T00:51:40.166Z,27.6
2019-01-24T00:52:29.351Z,27.4
2019-01-24T00:53:20.288Z,27.4
2019-01-24T00:54:09.541Z,27.3
2019-01-24T00:55:00.346Z,27.3
2019-01-24T00:55:49.943Z,27.3
2019-01-24T00:56:39.651Z,27.4
2019-01-24T00:57:28.961Z,27.6
2019-01-24T00:58:19.781Z,27.8
2019-01-24T00:59:10.145Z,27.9
2019-01-24T01:00:00.453Z,28.1
2019-01-24T01:00:50.523Z,28.2
2019-01-24T01:01:42.101Z,28.3
2019-01-24T01:02:30.608Z,28.4
2019-01-24T01:03:20.371Z,28.6
2019-01-24T01:04:10.439Z,28.6
2019-01-24T01:05:00.772Z,28.7
2019-01-24T01:05:50.823Z,28.8
2019-01-24T01:06:41.166Z,28.8
2019-01-24T01:07:30.398Z,28.9
2019-01-24T01:08:21.533Z,28.9
2019-01-24T01:09:11.555Z,28.9
2019-01-24T01:10:00.905Z,28.8
2019-01-24T01:10:51.100Z,28.7
2019-01-24T01:11:41.510Z,28.6
2019-01-24T01:12:31.527Z,28.4
2019-01-24T01:13:21.578Z,28.3
2019-01-24T01:14:11.887Z,28.2
2019-01-24T01:15:01.638Z,28
2019-01-24T01:15:50.734Z,27.9
2019-01-24T01:16:41.347Z,27.8
2019-01-24T01:17:31.387Z,27.6
2019-01-24T01:18:22.215Z,27.5
2019-01-24T01:19:12.017Z,27.3
2019-01-24T01:20:02.742Z,27.3
2019-01-24T01:20:52.346Z,27.3
2019-01-24T01:21:42.467Z,27.3
2019-01-24T01:22:31.909Z,27.3
2019-01-24T01:23:21.155Z,27.4
2019-01-24T01:24:12.109Z,27.6
2019-01-24T01:25:02.184Z,27.8
2019-01-24T01:25:52.981Z,27.9
2019-01-24T01:26:42.246Z,28.1
2019-01-24T01:27:32.779Z,28.2
2019-01-24T01:28:21.289Z,28.3
2019-01-24T01:29:12.918Z,28.4
2019-01-24T01:30:03.202Z,28.5
2019-01-24T01:30:52.759Z,28.6
2019-01-24T01:31:42.791Z,28.7
2019-01-24T01:32:32.919Z,28.8
2019-01-24T01:33:23.495Z,28.8
2019-01-24T01:34:12.423Z,28.9
2019-01-24T01:35:03.068Z,28.9
2019-01-24T01:35:53.111Z,28.9
2019-01-24T01:36:43.466Z,28.8
2019-01-24T01:37:33.486Z,28.7
2019-01-24T01:38:24.648Z,28.6
2019-01-24T01:39:13.313Z,28.4
2019-01-24T01:40:02.863Z,28.3
2019-01-24T01:40:53.480Z,28.3
2019-01-24T01:41:43.273Z,28.1
2019-01-24T01:42:33.573Z,27.9
2019-01-24T01:44:13.398Z,27.6
2019-01-24T01:45:03.603Z,27.4
2019-01-24T01:45:53.812Z,27.3
2019-01-24T01:46:43.865Z,27.3
2019-01-24T01:47:33.108Z,27.3
2019-01-24T01:48:23.967Z,27.3
2019-01-24T01:49:13.757Z,27.3
2019-01-24T01:50:04.445Z,27.4
2019-01-24T01:50:53.217Z,27.6
2019-01-24T01:51:43.925Z,27.8
2019-01-24T01:52:34.520Z,27.9
2019-01-24T01:53:24.313Z,28.1
2019-01-24T01:54:13.825Z,28.2
2019-01-24T01:55:04.317Z,28.3
2019-01-24T01:55:54.560Z,28.4
2019-01-24T01:56:44.578Z,28.5
2019-01-24T01:57:34.585Z,28.6
2019-01-24T01:58:25.202Z,28.6
2019-01-24T01:59:13.662Z,28.7
2019-01-24T02:00:04.569Z,28.8
2019-01-24T02:00:55.099Z,28.8
2019-01-24T02:01:45.197Z,28.9
2019-01-24T02:02:35.232Z,28.8
2019-01-24T02:03:24.735Z,28.8
2019-01-24T02:04:15.056Z,28.7
2019-01-24T02:05:05.219Z,28.6
2019-01-24T02:05:55.453Z,28.4
2019-01-24T02:06:45.354Z,28.3
2019-01-24T02:07:35.608Z,28.2
2019-01-24T02:08:24.554Z,28.1
2019-01-24T02:09:15.401Z,27.9
2019-01-24T02:10:55.033Z,27.6
2019-01-24T02:11:45.916Z,27.5
2019-01-24T02:12:35.896Z,27.4
2019-01-24T02:13:26.246Z,27.3
2019-01-24T02:14:15.501Z,27.3
2019-01-24T02:15:06.493Z,27.3
2019-01-24T02:15:56.166Z,27.3
2019-01-24T02:16:45.953Z,27.4
2019-01-24T02:17:35.240Z,27.6
2019-01-24T02:18:26.301Z,27.7
2019-01-24T02:19:16.468Z,27.9
2019-01-24T02:20:05.783Z,28
2019-01-24T02:20:55.943Z,28.1
2019-01-24T02:21:46.540Z,28.3
2019-01-24T02:22:37.788Z,28.4
2019-01-24T02:23:26.112Z,28.4
2019-01-24T02:24:16.198Z,28.6
2019-01-24T02:25:07.093Z,28.6
2019-01-24T02:25:56.536Z,28.7
2019-01-24T02:26:46.145Z,28.8
2019-01-24T02:27:37.255Z,28.8
2019-01-24T02:28:27.301Z,28.8
2019-01-24T02:29:16.768Z,28.8
2019-01-24T02:30:07.465Z,28.8
2019-01-24T02:30:57.477Z,28.7
2019-01-24T02:31:46.702Z,28.6
2019-01-24T02:32:37.085Z,28.5
2019-01-24T02:33:26.677Z,28.4
2019-01-24T02:34:17.170Z,28.3
2019-01-24T02:35:07.557Z,28.1
2019-01-24T02:35:57.310Z,27.9
2019-01-24T02:37:36.930Z,27.7
2019-01-24T02:38:27.494Z,27.5
2019-01-24T02:39:18.118Z,27.4
2019-01-24T02:40:08.132Z,27.3
2019-01-24T02:40:57.089Z,27.3
2019-01-24T02:41:48.241Z,27.3
2019-01-24T02:42:37.171Z,27.3
2019-01-24T02:43:26.744Z,27.4
2019-01-24T02:44:17.297Z,27.6
2019-01-24T02:45:08.375Z,27.7
2019-01-24T02:45:58.294Z,27.9
2019-01-24T02:46:47.523Z,28
2019-01-24T02:47:38.336Z,28.2
2019-01-24T02:48:28.461Z,28.3
2019-01-24T02:49:18.106Z,28.4
2019-01-24T02:50:08.186Z,28.4
2019-01-24T02:50:58.336Z,28.6
2019-01-24T02:51:48.365Z,28.6
2019-01-24T02:52:37.843Z,28.7
2019-01-24T02:53:28.458Z,28.8
2019-01-24T02:54:18.078Z,28.8
2019-01-24T02:55:09.000Z,28.8
2019-01-24T02:55:58.928Z,28.8
2019-01-24T02:56:48.698Z,28.8
2019-01-24T02:57:39.385Z,28.8
2019-01-24T02:58:29.383Z,28.7
2019-01-24T02:59:19.418Z,28.6
2019-01-24T03:00:09.290Z,28.4
2019-01-24T03:00:58.433Z,28.4
2019-01-24T03:01:48.758Z,28.2
2019-01-24T03:02:39.110Z,28.1
2019-01-24T03:03:29.485Z,27.9
2019-01-24T03:05:09.344Z,27.6
2019-01-24T03:08:42.147Z,27.3
2019-01-24T03:09:32.094Z,27.2
2019-01-24T03:10:22.451Z,27.3
2019-01-24T03:11:12.277Z,27.4
2019-01-24T03:12:01.741Z,27.6
2019-01-24T03:12:52.592Z,27.8
2019-01-24T03:13:42.317Z,27.9
2019-01-24T03:14:32.734Z,28
2019-01-24T03:15:22.226Z,28.1
2019-01-24T03:16:12.539Z,28.3
2019-01-24T03:17:02.867Z,28.4
2019-01-24T03:17:53.264Z,28.4
2019-01-24T03:18:42.499Z,28.6
2019-01-24T03:19:33.132Z,28.6
2019-01-24T03:20:22.862Z,28.7
2019-01-24T03:21:13.443Z,28.8
2019-01-24T03:22:03.286Z,28.8
2019-01-24T03:22:53.289Z,28.8
2019-01-24T03:23:43.028Z,28.8
2019-01-24T03:24:33.661Z,28.8
2019-01-24T03:25:23.028Z,28.7
2019-01-24T03:26:13.499Z,28.6
2019-01-24T03:27:03.579Z,28.5
2019-01-24T03:27:53.622Z,28.4
2019-01-24T03:28:43.118Z,28.2
2019-01-24T03:29:33.158Z,28.1
2019-01-24T03:30:24.219Z,27.9
2019-01-24T03:31:13.819Z,27.8
2019-01-24T03:32:04.553Z,27.6
2019-01-24T03:32:54.091Z,27.4
2019-01-24T03:33:43.522Z,27.3
2019-01-24T03:34:34.108Z,27.3
2019-01-24T03:35:23.911Z,27.3
2019-01-24T03:36:14.191Z,27.3
2019-01-24T03:37:04.250Z,27.3
2019-01-24T03:37:53.244Z,27.4
2019-01-24T03:38:43.511Z,27.6
2019-01-24T03:39:34.413Z,27.7
2019-01-24T03:40:23.465Z,27.9
2019-01-24T03:41:14.296Z,28
2019-01-24T03:42:04.857Z,28.1
2019-01-24T03:42:54.435Z,28.3
2019-01-24T03:43:44.672Z,28.3
2019-01-24T03:44:34.258Z,28.4
2019-01-24T03:45:24.596Z,28.5
2019-01-24T03:46:15.128Z,28.6
2019-01-24T03:47:04.443Z,28.7
2019-01-24T03:47:54.782Z,28.8
2019-01-24T03:48:44.437Z,28.8
2019-01-24T03:49:34.031Z,28.8
2019-01-24T03:50:25.467Z,28.9
2019-01-24T03:51:15.304Z,28.8
2019-01-24T03:52:05.579Z,28.8
2019-01-24T03:52:55.432Z,28.7
2019-01-24T03:53:45.399Z,28.6
2019-01-24T03:54:35.778Z,28.4
2019-01-24T03:55:24.715Z,28.3
2019-01-24T03:56:15.514Z,28.2
2019-01-24T03:57:04.777Z,28.1
2019-01-24T03:57:55.488Z,27.9
2019-01-24T03:58:45.444Z,27.8
2019-01-24T03:59:35.630Z,27.7
2019-01-24T04:00:25.670Z,27.6
2019-01-24T04:01:15.464Z,27.4
2019-01-24T04:02:05.699Z,27.3
2019-01-24T04:02:55.479Z,27.1
2019-01-24T04:03:45.496Z,27.1
2019-01-24T04:04:35.346Z,27
2019-01-24T04:05:26.559Z,27
2019-01-24T04:06:15.957Z,27
2019-01-24T04:07:06.094Z,27
2019-01-24T04:07:56.169Z,27.1
2019-01-24T04:08:46.132Z,27.3
2019-01-24T04:09:36.024Z,27.5
2019-01-24T04:10:26.576Z,27.7
2019-01-24T04:12:08.353Z,28
2019-01-24T04:12:56.428Z,28.1
2019-01-24T04:13:46.196Z,28.2
2019-01-24T04:14:36.227Z,28.3
2019-01-24T04:15:26.986Z,28.4
2019-01-24T04:16:17.263Z,28.5
2019-01-24T04:17:07.075Z,28.6
2019-01-24T04:17:56.595Z,28.7
2019-01-24T04:18:46.569Z,28.7
2019-01-24T04:19:36.703Z,28.8
2019-01-24T04:20:26.795Z,28.8
2019-01-24T04:21:17.251Z,28.8
2019-01-24T04:22:06.808Z,28.8
2019-01-24T04:22:57.431Z,28.8
2019-01-24T04:23:47.182Z,28.7
2019-01-24T04:24:37.479Z,28.6
2019-01-24T04:25:27.952Z,28.4
2019-01-24T04:26:16.495Z,28.3
2019-01-24T04:27:06.865Z,28.2
2019-01-24T04:27:57.357Z,28.1
2019-01-24T04:28:47.533Z,27.9
2019-01-24T04:30:27.312Z,27.7
2019-01-24T04:31:17.950Z,27.6
2019-01-24T04:32:07.776Z,27.5
2019-01-24T04:32:57.375Z,27.4
2019-01-24T04:33:47.076Z,27.1
2019-01-24T04:34:37.679Z,27
2019-01-24T04:35:30.557Z,26.9
2019-01-24T04:36:19.922Z,26.9
2019-01-24T04:37:07.872Z,27
2019-01-24T04:37:57.932Z,26.9
2019-01-24T04:38:47.941Z,27.1
2019-01-24T04:39:38.526Z,27.3
2019-01-24T04:40:28.336Z,27.4
2019-01-24T04:41:18.127Z,27.6
2019-01-24T04:42:08.769Z,27.8
2019-01-24T04:42:58.541Z,27.9
2019-01-24T04:43:48.308Z,28.1
2019-01-24T04:44:38.581Z,28.1
2019-01-24T04:45:28.726Z,28.3
2019-01-24T04:46:18.411Z,28.4
2019-01-24T04:47:09.080Z,28.4
2019-01-24T04:47:58.149Z,28.5
2019-01-24T04:48:48.940Z,28.6
2019-01-24T04:49:38.231Z,28.7
2019-01-24T04:50:28.686Z,28.7
2019-01-24T04:51:18.608Z,28.8
2019-01-24T04:52:08.975Z,28.8
2019-01-24T04:52:58.479Z,28.8
2019-01-24T04:53:49.157Z,28.8
2019-01-24T04:54:38.828Z,28.7
2019-01-24T04:55:28.197Z,28.6
2019-01-24T04:56:19.045Z,28.5
2019-01-24T04:57:09.253Z,28.4
2019-01-24T04:58:00.541Z,28.3
2019-01-24T04:58:49.440Z,28.1
2019-01-24T04:59:39.048Z,28
2019-01-24T05:00:29.584Z,27.9
2019-01-24T05:01:18.008Z,27.8
2019-01-24T05:02:09.152Z,27.6
2019-01-24T05:02:59.436Z,27.5
2019-01-24T05:03:49.728Z,27.4
2019-01-24T05:04:38.932Z,27.3
2019-01-24T05:05:37.110Z,27.1
2019-01-24T05:06:19.822Z,26.9
2019-01-24T05:07:09.783Z,26.9
2019-01-24T05:07:59.779Z,26.9
2019-01-24T05:08:49.557Z,26.9
2019-01-24T05:09:39.495Z,26.9
2019-01-24T05:10:30.611Z,27.1
2019-01-24T05:11:19.967Z,27.3
2019-01-24T05:12:09.593Z,27.4
2019-01-24T05:13:00.923Z,27.6
2019-01-24T05:13:50.130Z,27.8
2019-01-24T05:14:40.372Z,27.9
2019-01-24T05:15:30.484Z,28
2019-01-24T05:16:21.093Z,28.1
2019-01-24T05:17:10.564Z,28.2
2019-01-24T05:18:00.976Z,28.3
2019-01-24T05:18:50.958Z,28.4
2019-01-24T05:19:40.746Z,28.5
2019-01-24T05:20:30.859Z,28.6
2019-01-24T05:21:21.406Z,28.6
2019-01-24T05:22:11.458Z,28.7
2019-01-24T05:23:01.059Z,28.8
2019-01-24T05:23:51.891Z,28.8
2019-01-24T05:24:41.893Z,28.8
2019-01-24T05:25:31.998Z,28.7
2019-01-24T05:26:21.529Z,28.6
2019-01-24T05:27:11.265Z,28.6
2019-01-24T05:28:02.025Z,28.4
2019-01-24T05:28:51.421Z,28.3
2019-01-24T05:29:40.904Z,28.2
2019-01-24T05:30:31.834Z,28.1
2019-01-24T05:31:21.845Z,27.9
2019-01-24T05:33:03.575Z,27.7
2019-01-24T05:33:52.119Z,27.6
2019-01-24T05:34:42.355Z,27.5
2019-01-24T05:35:39.253Z,27.4
2019-01-24T05:36:21.969Z,27.1
2019-01-24T05:37:12.231Z,27.1
2019-01-24T05:38:02.874Z,26.9
2019-01-24T05:38:52.901Z,26.9
2019-01-24T05:39:42.947Z,26.9
2019-01-24T05:40:32.762Z,26.9
2019-01-24T05:41:22.807Z,27
2019-01-24T05:42:12.583Z,27.1
2019-01-24T05:43:02.457Z,27.3
2019-01-24T05:43:54.181Z,27.5
2019-01-24T05:44:43.352Z,27.6
2019-01-24T05:46:22.567Z,27.9
2019-01-24T05:47:13.186Z,28
2019-01-24T05:48:03.276Z,28.1
2019-01-24T05:48:52.722Z,28.2
2019-01-24T05:49:42.788Z,28.3
2019-01-24T05:50:34.669Z,28.3
2019-01-24T05:51:23.451Z,28.2
2019-01-24T05:52:20.775Z,28
2019-01-24T05:53:03.081Z,27.8
2019-01-24T05:53:53.742Z,27.6
2019-01-24T05:54:43.136Z,27.3
2019-01-24T05:55:34.403Z,27.2
2019-01-24T05:56:23.513Z,27.1
2019-01-24T05:57:13.878Z,27.3
2019-01-24T05:58:03.656Z,27.3
2019-01-24T05:58:53.690Z,27.2
2019-01-24T05:59:43.468Z,27.1
2019-01-24T06:00:33.280Z,26.9
2019-01-24T06:01:23.862Z,26.9
2019-01-24T06:02:13.655Z,27
2019-01-24T06:03:03.955Z,27.2
2019-01-24T06:03:54.009Z,27.4
2019-01-24T06:06:41.817Z,27.9
2019-01-24T06:07:33.647Z,28.1
2019-01-24T06:08:21.712Z,28.1
2019-01-24T06:09:12.568Z,28.3
2019-01-24T06:10:02.327Z,28.4
2019-01-24T06:10:52.420Z,28.4
2019-01-24T06:11:41.894Z,28.5
2019-01-24T06:12:33.842Z,28.6
2019-01-24T06:13:22.332Z,28.6
2019-01-24T06:14:12.655Z,28.7
2019-01-24T06:15:02.466Z,28.7
2019-01-24T06:15:51.928Z,28.7
2019-01-24T06:16:42.519Z,28.6
2019-01-24T06:17:32.016Z,28.5
2019-01-24T06:18:22.636Z,28.4
2019-01-24T06:19:13.007Z,28.3
2019-01-24T06:20:02.552Z,28.1
2019-01-24T06:20:52.575Z,28
2019-01-24T06:21:43.201Z,27.9
2019-01-24T06:22:33.468Z,27.8
2019-01-24T06:23:22.369Z,27.6
2019-01-24T06:24:13.317Z,27.5
2019-01-24T06:25:03.422Z,27.4
2019-01-24T06:25:53.169Z,27.3
2019-01-24T06:26:42.778Z,27.1
2019-01-24T06:27:33.136Z,27
2019-01-24T06:28:22.858Z,26.8
2019-01-24T06:29:13.174Z,26.9
2019-01-24T06:30:03.641Z,26.9
2019-01-24T06:30:52.715Z,26.9
2019-01-24T06:31:43.036Z,26.9
2019-01-24T06:32:34.179Z,27
2019-01-24T06:33:23.681Z,27.3
2019-01-24T06:34:13.829Z,27.4
2019-01-24T06:35:03.601Z,27.6
2019-01-24T06:35:59.658Z,27.8
2019-01-24T06:36:44.173Z,27.9
2019-01-24T06:37:33.986Z,28
2019-01-24T06:38:24.242Z,28.1
2019-01-24T06:39:13.753Z,28.2
2019-01-24T06:40:04.405Z,28.3
2019-01-24T06:40:54.140Z,28.4
2019-01-24T06:41:43.407Z,28.5
2019-01-24T06:42:34.000Z,28.6
2019-01-24T06:43:24.047Z,28.6
2019-01-24T06:44:14.110Z,28.7
2019-01-24T06:45:04.509Z,28.7
2019-01-24T06:45:54.502Z,28.7
2019-01-24T06:46:44.629Z,28.6
2019-01-24T06:47:34.900Z,28.6
2019-01-24T06:48:23.859Z,28.4
2019-01-24T06:49:15.314Z,28.3
2019-01-24T06:50:04.385Z,28.2
2019-01-24T06:50:55.114Z,28.1
2019-01-24T06:51:44.902Z,27.9
2019-01-24T06:53:23.959Z,27.7
2019-01-24T06:54:15.317Z,27.6
2019-01-24T06:55:05.812Z,27.4
2019-01-24T06:55:54.989Z,27.3
2019-01-24T06:56:43.799Z,27.2
2019-01-24T06:57:34.374Z,26.9
2019-01-24T06:58:25.154Z,26.9
2019-01-24T06:59:14.964Z,26.8
2019-01-24T07:00:04.527Z,26.8
2019-01-24T07:00:55.329Z,26.8
2019-01-24T07:01:45.316Z,26.8
2019-01-24T07:02:34.793Z,26.9
2019-01-24T07:03:25.566Z,27.1
2019-01-24T07:04:15.744Z,27.3
2019-01-24T07:06:40.853Z,27.8
2019-01-24T07:07:31.171Z,27.9
2019-01-24T07:08:21.801Z,28.1
2019-01-24T07:09:12.139Z,28.1
2019-01-24T07:10:02.346Z,28.3
2019-01-24T07:10:51.458Z,28.3
2019-01-24T07:11:41.570Z,28.4
2019-01-24T07:12:32.093Z,28.5
2019-01-24T07:13:21.596Z,28.6
2019-01-24T07:14:11.643Z,28.6
2019-01-24T07:15:01.793Z,28.7
2019-01-24T07:15:52.081Z,28.7
2019-01-24T07:16:41.885Z,28.6
2019-01-24T07:17:31.650Z,28.6
2019-01-24T07:18:22.765Z,28.4
2019-01-24T07:19:11.715Z,28.4
2019-01-24T07:20:02.418Z,28.3
2019-01-24T07:20:52.402Z,28.1
2019-01-24T07:21:41.870Z,28.1
2019-01-24T07:22:33.043Z,27.9
2019-01-24T07:24:11.842Z,27.8
2019-01-24T07:25:02.743Z,27.6
2019-01-24T07:25:52.206Z,27.6
2019-01-24T07:26:42.833Z,27.4
2019-01-24T07:27:32.002Z,27.1
2019-01-24T07:28:22.927Z,27.1
2019-01-24T07:29:12.707Z,26.8
2019-01-24T07:30:02.760Z,26.8
2019-01-24T07:30:52.562Z,26.8
2019-01-24T07:31:43.722Z,26.8
2019-01-24T07:32:32.629Z,26.9
2019-01-24T07:33:22.995Z,27.1
2019-01-24T07:34:13.292Z,27.3
2019-01-24T07:35:03.084Z,27.4
2019-01-24T07:35:53.164Z,27.6
2019-01-24T07:36:44.022Z,27.8
2019-01-24T07:37:33.598Z,27.9
2019-01-24T07:38:23.577Z,28
2019-01-24T07:39:14.182Z,28.1
2019-01-24T07:40:03.833Z,28.3
2019-01-24T07:40:53.511Z,28.3
2019-01-24T07:41:43.549Z,28.4
2019-01-24T07:42:32.766Z,28.5
2019-01-24T07:43:25.595Z,28.6
2019-01-24T07:44:14.274Z,28.6
2019-01-24T07:45:04.546Z,28.6
2019-01-24T07:45:54.105Z,28.6
2019-01-24T07:46:43.603Z,28.6
2019-01-24T07:47:33.973Z,28.5
2019-01-24T07:48:23.716Z,28.4
2019-01-24T07:49:14.341Z,28.3
2019-01-24T07:50:05.329Z,28.2
2019-01-24T07:50:54.736Z,28.1
2019-01-24T07:51:43.656Z,27.9
2019-01-24T07:52:35.409Z,27.9
2019-01-24T07:53:24.076Z,27.8
2019-01-24T07:54:14.380Z,27.6
2019-01-24T07:55:05.303Z,27.6
2019-01-24T07:55:54.038Z,27.4
2019-01-24T07:56:44.108Z,27.3
2019-01-24T07:57:34.353Z,27.1
2019-01-24T07:58:24.792Z,26.8
2019-01-24T07:59:14.755Z,26.8
2019-01-24T08:00:05.168Z,26.8
2019-01-24T08:00:54.293Z,26.8
2019-01-24T08:01:45.173Z,26.8
2019-01-24T08:02:34.703Z,26.9
2019-01-24T08:03:24.500Z,27.1
2019-01-24T08:04:15.123Z,27.3
2019-01-24T08:05:05.700Z,27.5
2019-01-24T08:05:56.023Z,27.7
2019-01-24T08:07:35.678Z,27.9
2019-01-24T08:08:24.842Z,28.1
2019-01-24T08:09:16.590Z,28.2
2019-01-24T08:10:05.647Z,28.3
2019-01-24T08:10:55.817Z,28.4
2019-01-24T08:11:45.040Z,28.4
2019-01-24T08:12:35.944Z,28.5
2019-01-24T08:13:25.440Z,28.6
2019-01-24T08:14:16.307Z,28.6
2019-01-24T08:15:05.892Z,28.7
2019-01-24T08:15:55.917Z,28.6
2019-01-24T08:16:46.822Z,28.6
2019-01-24T08:17:35.707Z,28.5
2019-01-24T08:18:26.341Z,28.4
2019-01-24T08:19:16.119Z,28.3
2019-01-24T08:20:05.934Z,28.2
2019-01-24T08:20:56.546Z,28.1
2019-01-24T08:21:46.829Z,27.9
2019-01-24T08:22:36.924Z,27.9
2019-01-24T08:23:26.509Z,27.8
2019-01-24T08:24:16.724Z,27.6
2019-01-24T08:25:06.879Z,27.6
2019-01-24T08:25:56.086Z,27.4
2019-01-24T08:26:46.735Z,27.3
2019-01-24T08:27:38.687Z,27.1
2019-01-24T08:28:27.354Z,26.9
2019-01-24T08:29:16.066Z,26.8
2019-01-24T08:30:07.166Z,26.8
2019-01-24T08:30:57.458Z,26.8
2019-01-24T08:31:46.958Z,26.8
2019-01-24T08:32:38.686Z,26.9
2019-01-24T08:33:25.833Z,27.1
2019-01-24T08:34:17.431Z,27.3
2019-01-24T08:35:06.936Z,27.5
2019-01-24T08:35:57.293Z,27.7
2019-01-24T08:37:37.688Z,27.9
2019-01-24T08:38:27.190Z,28.1
2019-01-24T08:39:18.069Z,28.1
2019-01-24T08:40:08.023Z,28.3
2019-01-24T08:40:57.047Z,28.4
2019-01-24T08:41:48.218Z,28.4
2019-01-24T08:42:38.007Z,28.5
2019-01-24T08:43:27.600Z,28.6
2019-01-24T08:44:17.615Z,28.6
2019-01-24T08:45:07.645Z,28.6
2019-01-24T08:45:57.665Z,28.6
2019-01-24T08:46:48.020Z,28.5
2019-01-24T08:47:38.055Z,28.4
2019-01-24T08:48:28.105Z,28.3
2019-01-24T08:49:18.225Z,28.3
2019-01-24T08:50:08.267Z,28.1
2019-01-24T08:50:58.850Z,28
2019-01-24T08:51:48.949Z,27.9
2019-01-24T08:53:28.532Z,27.7
2019-01-24T08:54:19.417Z,27.6
2019-01-24T08:55:08.150Z,27.5
2019-01-24T08:55:58.730Z,27.4
2019-01-24T08:56:48.294Z,27.1
2019-01-24T08:57:39.045Z,27.1
2019-01-24T08:58:29.136Z,26.8
2019-01-24T08:59:19.401Z,26.8
2019-01-24T09:00:09.122Z,26.8
2019-01-24T09:00:59.579Z,26.8
2019-01-24T09:01:49.332Z,26.8
2019-01-24T09:02:39.398Z,27
2019-01-24T09:03:29.729Z,27.2
2019-01-24T09:04:20.049Z,27.4
2019-01-24T09:05:09.812Z,27.6
2019-01-24T09:05:59.864Z,27.8
2019-01-24T09:06:49.486Z,27.9
2019-01-24T09:07:40.029Z,28
2019-01-24T09:08:30.054Z,28.1
2019-01-24T09:09:20.402Z,28.2
2019-01-24T09:10:10.578Z,28.3
2019-01-24T09:10:59.676Z,28.4
2019-01-24T09:11:50.289Z,28.4
2019-01-24T09:12:40.541Z,28.5
2019-01-24T09:13:30.126Z,28.6
2019-01-24T09:14:20.733Z,28.6
2019-01-24T09:15:09.880Z,28.6
2019-01-24T09:15:59.449Z,28.6
2019-01-24T09:16:50.053Z,28.6
2019-01-24T09:17:41.230Z,28.4
2019-01-24T09:18:30.770Z,28.3
2019-01-24T09:19:20.783Z,28.3
2019-01-24T09:20:10.121Z,28.1
2019-01-24T09:21:01.946Z,28
2019-01-24T09:21:50.998Z,27.9
2019-01-24T09:23:31.400Z,27.7
2019-01-24T09:24:21.182Z,27.6
2019-01-24T09:25:11.780Z,27.5
2019-01-24T09:26:00.245Z,27.4
2019-01-24T09:26:50.230Z,27.1
2019-01-24T09:27:40.729Z,27
2019-01-24T09:28:30.565Z,26.8
2019-01-24T09:29:21.195Z,26.8
2019-01-24T09:30:10.805Z,26.8
2019-01-24T09:31:01.047Z,26.8
2019-01-24T09:31:51.127Z,26.8
2019-01-24T09:32:41.217Z,27
2019-01-24T09:33:31.837Z,27.2
2019-01-24T09:34:21.250Z,27.4
2019-01-24T09:35:12.259Z,27.6
2019-01-24T09:36:00.825Z,27.8
2019-01-24T09:36:52.042Z,27.9
2019-01-24T09:37:41.239Z,28
2019-01-24T09:38:32.374Z,28.1
2019-01-24T09:39:21.354Z,28.2
2019-01-24T09:40:11.944Z,28.3
2019-01-24T09:41:01.431Z,28.4
2019-01-24T09:41:52.092Z,28.4
2019-01-24T09:42:41.841Z,28.5
2019-01-24T09:43:31.674Z,28.6
2019-01-24T09:44:21.937Z,28.6
2019-01-24T09:45:11.746Z,28.6
2019-01-24T09:46:02.413Z,28.6
2019-01-24T09:46:52.129Z,28.5
2019-01-24T09:47:43.028Z,28.4
2019-01-24T09:48:32.326Z,28.3
2019-01-24T09:49:22.591Z,28.2
2019-01-24T09:50:12.896Z,28.1
2019-01-24T09:51:02.156Z,27.9
2019-01-24T09:51:52.254Z,27.9
2019-01-24T09:52:43.171Z,27.8
2019-01-24T09:53:33.398Z,27.7
2019-01-24T09:54:22.653Z,27.6
2019-01-24T09:55:14.168Z,27.4
2019-01-24T09:56:02.826Z,27.3
2019-01-24T09:56:53.090Z,27
2019-01-24T09:57:42.328Z,26.8
2019-01-24T09:58:33.211Z,26.8
2019-01-24T09:59:23.555Z,26.8
2019-01-24T10:00:13.610Z,26.8
2019-01-24T10:01:03.458Z,26.8
2019-01-24T10:01:53.438Z,26.9
2019-01-24T10:02:43.813Z,27.1
2019-01-24T10:03:33.568Z,27.3
2019-01-24T10:04:23.710Z,27.5
2019-01-24T10:05:13.665Z,27.7
2019-01-24T10:07:39.655Z,28.1
2019-01-24T10:08:31.222Z,28.2
2019-01-24T10:09:20.797Z,28.3
2019-01-24T10:10:10.995Z,28.4
2019-01-24T10:11:01.343Z,28.5
2019-01-24T10:11:49.759Z,28.6
2019-01-24T10:12:41.414Z,28.6
2019-01-24T10:13:31.420Z,28.6
2019-01-24T10:14:21.828Z,28.7
2019-01-24T10:15:11.216Z,28.6
2019-01-24T10:16:01.325Z,28.6
2019-01-24T10:16:51.945Z,28.4
2019-01-24T10:17:43.377Z,28.4
2019-01-24T10:18:31.804Z,28.3
2019-01-24T10:19:21.519Z,28.1
2019-01-24T10:20:12.409Z,28
2019-01-24T10:21:01.064Z,27.9
2019-01-24T10:21:52.046Z,27.8
2019-01-24T10:22:42.099Z,27.6
2019-01-24T10:23:31.569Z,27.5
2019-01-24T10:24:21.654Z,27.4
2019-01-24T10:25:11.333Z,27.3
2019-01-24T10:26:02.321Z,27.1
2019-01-24T10:26:52.729Z,26.9
2019-01-24T10:27:41.609Z,26.8
2019-01-24T10:28:33.235Z,26.8
2019-01-24T10:29:21.406Z,26.8
2019-01-24T10:30:11.776Z,26.8
2019-01-24T10:31:02.439Z,26.8
2019-01-24T10:31:53.819Z,27
2019-01-24T10:32:41.719Z,27.2
2019-01-24T10:33:32.543Z,27.4
2019-01-24T10:34:22.071Z,27.6
2019-01-24T10:35:12.466Z,27.7
2019-01-24T10:36:52.198Z,27.9
2019-01-24T10:37:42.340Z,28.1
2019-01-24T10:38:33.170Z,28.2
2019-01-24T10:39:23.066Z,28.3
2019-01-24T10:40:12.369Z,28.4
2019-01-24T10:41:03.092Z,28.4
2019-01-24T10:41:53.477Z,28.5
2019-01-24T10:42:43.496Z,28.6
2019-01-24T10:43:33.251Z,28.6
2019-01-24T10:44:23.548Z,28.6
2019-01-24T10:45:13.352Z,28.6
2019-01-24T10:46:03.110Z,28.6
2019-01-24T10:46:54.998Z,28.5
2019-01-24T10:47:43.785Z,28.4
2019-01-24T10:48:33.620Z,28.3
2019-01-24T10:49:23.369Z,28.1
2019-01-24T10:50:13.437Z,28
2019-01-24T10:51:04.379Z,27.9
2019-01-24T10:51:53.533Z,27.8
2019-01-24T10:52:44.168Z,27.6
2019-01-24T10:53:34.217Z,27.5
2019-01-24T10:54:24.322Z,27.4
2019-01-24T10:55:21.263Z,27.3
2019-01-24T10:56:04.199Z,27
2019-01-24T10:56:53.628Z,27
2019-01-24T10:57:44.781Z,26.8
2019-01-24T10:58:34.618Z,26.8
2019-01-24T10:59:24.974Z,26.8
2019-01-24T11:00:14.714Z,26.8
2019-01-24T11:01:03.644Z,26.8
2019-01-24T11:01:54.504Z,27
2019-01-24T11:02:44.869Z,27.2
2019-01-24T11:03:34.349Z,27.4
2019-01-24T11:04:23.661Z,27.6
2019-01-24T11:05:14.753Z,27.7
2019-01-24T11:06:59.493Z,27.9
2019-01-24T11:07:45.636Z,28.1
2019-01-24T11:08:35.162Z,28.2
2019-01-24T11:09:25.579Z,28.3
2019-01-24T11:10:16.051Z,28.4
2019-01-24T11:11:05.463Z,28.4
2019-01-24T11:11:56.228Z,28.5
2019-01-24T11:12:45.721Z,28.6
2019-01-24T11:13:35.411Z,28.6
2019-01-24T11:14:25.659Z,28.7
2019-01-24T11:15:14.589Z,28.7
2019-01-24T11:16:05.151Z,28.6
2019-01-24T11:16:55.546Z,28.5
2019-01-24T11:17:45.615Z,28.4
2019-01-24T11:18:35.376Z,28.3
2019-01-24T11:19:24.865Z,28.2
2019-01-24T11:20:15.303Z,28.1
2019-01-24T11:21:05.920Z,27.9
2019-01-24T11:22:46.042Z,27.6
2019-01-24T11:23:35.727Z,27.5
2019-01-24T11:24:26.042Z,27.4
2019-01-24T11:25:15.882Z,27.3
2019-01-24T11:26:05.913Z,27.2
2019-01-24T11:26:56.480Z,26.9
2019-01-24T11:27:45.670Z,27
2019-01-24T11:28:36.725Z,26.8
2019-01-24T11:29:26.654Z,26.8
2019-01-24T11:30:15.905Z,26.8
2019-01-24T11:31:06.844Z,26.8
2019-01-24T11:31:57.115Z,26.8
2019-01-24T11:32:47.247Z,27
2019-01-24T11:33:36.626Z,27.3